sensor_id;sensor_type;location;lat;lon;timestamp;P1;durP1;ratioP1;P2;durP2;ratioP2
55776;SDS011;54079;44.540;18.784;2023-05-07T00:01:59;2.88;;;1.50;;
55776;SDS011;54079;44.540;18.784;2023-05-07T00:04:25;1.80;;;1.48;;
55776;SDS011;54079;44.540;18.784;2023-05-07T00:06:53;1.48;;;1.38;;
55776;SDS011;54079;44.540;18.784;2023-05-07T00:09:19;1.23;;;1.13;;
55776;SDS011;54079;44.540;18.784;2023-05-07T00:11:45;1.60;;;1.42;;
55776;SDS011;54079;44.540;18.784;2023-05-07T00:14:11;1.52;;;1.38;;
55776;SDS011;54079;44.540;18.784;2023-05-07T00:16:36;1.60;;;1.50;;
55776;SDS011;54079;44.540;18.784;2023-05-07T00:19:03;1.27;;;1.17;;
55776;SDS011;54079;44.540;18.784;2023-05-07T00:21:29;3.13;;;1.88;;
55776;SDS011;54079;44.540;18.784;2023-05-07T00:23:55;1.45;;;1.35;;
55776;SDS011;54079;44.540;18.784;2023-05-07T00:26:21;1.38;;;1.27;;
55776;SDS011;54079;44.540;18.784;2023-05-07T00:28:47;1.33;;;1.23;;
55776;SDS011;54079;44.540;18.784;2023-05-07T00:31:13;1.63;;;1.52;;
55776;SDS011;54079;44.540;18.784;2023-05-07T00:33:39;1.55;;;1.45;;
55776;SDS011;54079;44.540;18.784;2023-05-07T00:36:05;2.80;;;1.70;;
55776;SDS011;54079;44.540;18.784;2023-05-07T00:38:31;1.35;;;1.25;;
55776;SDS011;54079;44.540;18.784;2023-05-07T00:40:57;2.25;;;2.05;;
55776;SDS011;54079;44.540;18.784;2023-05-07T00:43:23;1.52;;;1.38;;
55776;SDS011;54079;44.540;18.784;2023-05-07T00:45:49;1.70;;;1.60;;
55776;SDS011;54079;44.540;18.784;2023-05-07T00:48:15;1.38;;;1.27;;
55776;SDS011;54079;44.540;18.784;2023-05-07T00:50:41;1.50;;;1.38;;
55776;SDS011;54079;44.540;18.784;2023-05-07T00:53:08;2.08;;;1.48;;
55776;SDS011;54079;44.540;18.784;2023-05-07T00:55:34;1.30;;;1.20;;
55776;SDS011;54079;44.540;18.784;2023-05-07T00:58:01;1.55;;;0.80;;
55776;SDS011;54079;44.540;18.784;2023-05-07T01:00:28;1.85;;;1.30;;
55776;SDS011;54079;44.540;18.784;2023-05-07T01:02:54;1.40;;;1.30;;
55776;SDS011;54079;44.540;18.784;2023-05-07T01:05:20;1.90;;;1.40;;
55776;SDS011;54079;44.540;18.784;2023-05-07T01:07:49;1.50;;;1.40;;
55776;SDS011;54079;44.540;18.784;2023-05-07T01:10:17;1.75;;;1.48;;
55776;SDS011;54079;44.540;18.784;2023-05-07T01:12:44;1.83;;;1.63;;
55776;SDS011;54079;44.540;18.784;2023-05-07T01:15:10;1.77;;;1.63;;
55776;SDS011;54079;44.540;18.784;2023-05-07T01:17:37;1.67;;;1.58;;
55776;SDS011;54079;44.540;18.784;2023-05-07T01:20:05;1.35;;;1.25;;
55776;SDS011;54079;44.540;18.784;2023-05-07T01:22:32;1.55;;;1.45;;
55776;SDS011;54079;44.540;18.784;2023-05-07T01:24:59;2.97;;;1.85;;
55776;SDS011;54079;44.540;18.784;2023-05-07T01:27:27;2.28;;;2.05;;
55776;SDS011;54079;44.540;18.784;2023-05-07T01:29:53;2.10;;;1.85;;
55776;SDS011;54079;44.540;18.784;2023-05-07T01:32:20;2.95;;;2.40;;
55776;SDS011;54079;44.540;18.784;2023-05-07T01:34:59;2.78;;;2.58;;
55776;SDS011;54079;44.540;18.784;2023-05-07T01:37:26;2.40;;;1.77;;
55776;SDS011;54079;44.540;18.784;2023-05-07T01:39:52;2.15;;;1.73;;
55776;SDS011;54079;44.540;18.784;2023-05-07T01:42:19;1.75;;;1.65;;
55776;SDS011;54079;44.540;18.784;2023-05-07T01:44:45;1.95;;;1.85;;
55776;SDS011;54079;44.540;18.784;2023-05-07T01:47:12;2.40;;;2.20;;
55776;SDS011;54079;44.540;18.784;2023-05-07T01:49:39;2.10;;;1.90;;
55776;SDS011;54079;44.540;18.784;2023-05-07T01:52:06;1.67;;;1.58;;
55776;SDS011;54079;44.540;18.784;2023-05-07T01:54:32;1.90;;;1.70;;
55776;SDS011;54079;44.540;18.784;2023-05-07T01:56:58;2.00;;;1.80;;
55776;SDS011;54079;44.540;18.784;2023-05-07T01:59:24;2.00;;;1.80;;
55776;SDS011;54079;44.540;18.784;2023-05-07T02:01:50;1.60;;;1.38;;
55776;SDS011;54079;44.540;18.784;2023-05-07T02:04:16;2.50;;;2.00;;
55776;SDS011;54079;44.540;18.784;2023-05-07T02:06:42;2.95;;;1.85;;
55776;SDS011;54079;44.540;18.784;2023-05-07T02:09:08;2.42;;;1.80;;
55776;SDS011;54079;44.540;18.784;2023-05-07T02:11:34;1.73;;;1.63;;
55776;SDS011;54079;44.540;18.784;2023-05-07T02:14:00;3.05;;;2.33;;
55776;SDS011;54079;44.540;18.784;2023-05-07T02:16:26;1.50;;;1.40;;
55776;SDS011;54079;44.540;18.784;2023-05-07T02:18:52;1.60;;;1.50;;
55776;SDS011;54079;44.540;18.784;2023-05-07T02:21:18;1.90;;;1.27;;
55776;SDS011;54079;44.540;18.784;2023-05-07T02:23:44;1.83;;;1.50;;
55776;SDS011;54079;44.540;18.784;2023-05-07T02:26:10;1.80;;;1.70;;
55776;SDS011;54079;44.540;18.784;2023-05-07T02:28:36;2.15;;;2.00;;
55776;SDS011;54079;44.540;18.784;2023-05-07T02:31:03;1.58;;;1.48;;
55776;SDS011;54079;44.540;18.784;2023-05-07T02:33:29;2.25;;;1.90;;
55776;SDS011;54079;44.540;18.784;2023-05-07T02:35:55;2.83;;;1.67;;
55776;SDS011;54079;44.540;18.784;2023-05-07T02:38:22;2.42;;;2.20;;
55776;SDS011;54079;44.540;18.784;2023-05-07T02:40:48;1.60;;;1.50;;
55776;SDS011;54079;44.540;18.784;2023-05-07T02:43:14;2.22;;;2.03;;
55776;SDS011;54079;44.540;18.784;2023-05-07T02:45:40;2.60;;;1.77;;
55776;SDS011;54079;44.540;18.784;2023-05-07T02:48:06;2.75;;;1.95;;
55776;SDS011;54079;44.540;18.784;2023-05-07T02:50:32;1.80;;;1.70;;
55776;SDS011;54079;44.540;18.784;2023-05-07T02:52:58;2.35;;;1.90;;
55776;SDS011;54079;44.540;18.784;2023-05-07T02:55:24;2.00;;;1.80;;
55776;SDS011;54079;44.540;18.784;2023-05-07T02:57:50;2.47;;;1.98;;
55776;SDS011;54079;44.540;18.784;2023-05-07T03:00:17;1.90;;;1.80;;
55776;SDS011;54079;44.540;18.784;2023-05-07T03:02:46;2.40;;;2.17;;
55776;SDS011;54079;44.540;18.784;2023-05-07T03:05:12;1.70;;;1.58;;
55776;SDS011;54079;44.540;18.784;2023-05-07T03:07:39;1.60;;;1.50;;
55776;SDS011;54079;44.540;18.784;2023-05-07T03:10:09;1.77;;;1.67;;
55776;SDS011;54079;44.540;18.784;2023-05-07T03:12:35;2.05;;;1.90;;
55776;SDS011;54079;44.540;18.784;2023-05-07T03:15:01;1.90;;;1.75;;
55776;SDS011;54079;44.540;18.784;2023-05-07T03:17:27;2.28;;;1.88;;
55776;SDS011;54079;44.540;18.784;2023-05-07T03:19:53;2.20;;;1.73;;
55776;SDS011;54079;44.540;18.784;2023-05-07T03:22:19;2.45;;;2.25;;
55776;SDS011;54079;44.540;18.784;2023-05-07T03:24:45;2.08;;;1.58;;
55776;SDS011;54079;44.540;18.784;2023-05-07T03:27:11;2.25;;;1.65;;
55776;SDS011;54079;44.540;18.784;2023-05-07T03:29:37;2.65;;;2.08;;
55776;SDS011;54079;44.540;18.784;2023-05-07T03:32:03;1.77;;;1.35;;
55776;SDS011;54079;44.540;18.784;2023-05-07T03:34:29;2.20;;;1.90;;
55776;SDS011;54079;44.540;18.784;2023-05-07T03:36:55;2.28;;;2.08;;
55776;SDS011;54079;44.540;18.784;2023-05-07T03:39:21;1.85;;;1.63;;
55776;SDS011;54079;44.540;18.784;2023-05-07T03:41:47;2.17;;;1.98;;
55776;SDS011;54079;44.540;18.784;2023-05-07T03:44:13;1.40;;;1.30;;
55776;SDS011;54079;44.540;18.784;2023-05-07T03:46:39;2.55;;;1.60;;
55776;SDS011;54079;44.540;18.784;2023-05-07T03:49:05;1.90;;;1.63;;
55776;SDS011;54079;44.540;18.784;2023-05-07T03:51:31;1.65;;;1.55;;
55776;SDS011;54079;44.540;18.784;2023-05-07T03:53:57;3.60;;;2.25;;
55776;SDS011;54079;44.540;18.784;2023-05-07T03:56:23;2.53;;;2.05;;
55776;SDS011;54079;44.540;18.784;2023-05-07T03:58:51;2.88;;;2.25;;
55776;SDS011;54079;44.540;18.784;2023-05-07T04:01:17;2.80;;;2.30;;
55776;SDS011;54079;44.540;18.784;2023-05-07T04:03:43;3.22;;;2.30;;
55776;SDS011;54079;44.540;18.784;2023-05-07T04:06:09;2.67;;;2.47;;
55776;SDS011;54079;44.540;18.784;2023-05-07T04:08:35;2.55;;;2.13;;
55776;SDS011;54079;44.540;18.784;2023-05-07T04:11:01;2.38;;;2.17;;
55776;SDS011;54079;44.540;18.784;2023-05-07T04:13:27;2.42;;;2.20;;
55776;SDS011;54079;44.540;18.784;2023-05-07T04:15:54;1.60;;;1.50;;
55776;SDS011;54079;44.540;18.784;2023-05-07T04:18:21;1.98;;;1.73;;
55776;SDS011;54079;44.540;18.784;2023-05-07T04:20:47;2.13;;;1.90;;
55776;SDS011;54079;44.540;18.784;2023-05-07T04:23:14;2.15;;;1.98;;
55776;SDS011;54079;44.540;18.784;2023-05-07T04:25:40;2.88;;;2.30;;
55776;SDS011;54079;44.540;18.784;2023-05-07T04:28:06;2.58;;;2.38;;
55776;SDS011;54079;44.540;18.784;2023-05-07T04:30:32;2.10;;;1.73;;
55776;SDS011;54079;44.540;18.784;2023-05-07T04:32:58;2.25;;;1.90;;
55776;SDS011;54079;44.540;18.784;2023-05-07T04:35:24;2.22;;;2.08;;
55776;SDS011;54079;44.540;18.784;2023-05-07T04:37:50;2.85;;;1.83;;
55776;SDS011;54079;44.540;18.784;2023-05-07T04:40:16;2.30;;;2.10;;
55776;SDS011;54079;44.540;18.784;2023-05-07T04:42:42;4.50;;;4.20;;
55776;SDS011;54079;44.540;18.784;2023-05-07T04:45:08;4.70;;;4.20;;
55776;SDS011;54079;44.540;18.784;2023-05-07T04:47:35;4.70;;;4.35;;
55776;SDS011;54079;44.540;18.784;2023-05-07T04:50:01;3.10;;;2.90;;
55776;SDS011;54079;44.540;18.784;2023-05-07T04:52:27;2.70;;;2.50;;
55776;SDS011;54079;44.540;18.784;2023-05-07T04:54:53;2.88;;;2.67;;
55776;SDS011;54079;44.540;18.784;2023-05-07T04:57:19;7.65;;;5.13;;
55776;SDS011;54079;44.540;18.784;2023-05-07T04:59:45;4.32;;;3.92;;
55776;SDS011;54079;44.540;18.784;2023-05-07T05:02:11;11.43;;;10.73;;
55776;SDS011;54079;44.540;18.784;2023-05-07T05:04:37;20.65;;;19.67;;
55776;SDS011;54079;44.540;18.784;2023-05-07T05:07:03;21.38;;;20.38;;
55776;SDS011;54079;44.540;18.784;2023-05-07T05:09:29;27.25;;;11.65;;
55776;SDS011;54079;44.540;18.784;2023-05-07T05:11:55;37.95;;;36.45;;
55776;SDS011;54079;44.540;18.784;2023-05-07T05:14:21;1999.90;;;999.90;;
55776;SDS011;54079;44.540;18.784;2023-05-07T05:16:47;1999.90;;;999.90;;
55776;SDS011;54079;44.540;18.784;2023-05-07T05:19:13;1999.90;;;999.90;;
55776;SDS011;54079;44.540;18.784;2023-05-07T05:21:39;1999.90;;;999.90;;
55776;SDS011;54079;44.540;18.784;2023-05-07T05:24:05;1999.90;;;999.90;;
55776;SDS011;54079;44.540;18.784;2023-05-07T05:26:31;1999.90;;;999.90;;
55776;SDS011;54079;44.540;18.784;2023-05-07T05:28:57;1999.90;;;999.90;;
55776;SDS011;54079;44.540;18.784;2023-05-07T05:31:23;1999.90;;;999.90;;
55776;SDS011;54079;44.540;18.784;2023-05-07T05:33:48;1999.90;;;999.90;;
55776;SDS011;54079;44.540;18.784;2023-05-07T05:36:14;1999.90;;;999.90;;
55776;SDS011;54079;44.540;18.784;2023-05-07T05:38:40;1999.90;;;999.90;;
55776;SDS011;54079;44.540;18.784;2023-05-07T05:41:06;19.05;;;18.23;;
55776;SDS011;54079;44.540;18.784;2023-05-07T05:43:32;6.65;;;6.22;;
55776;SDS011;54079;44.540;18.784;2023-05-07T05:45:58;3.80;;;3.60;;
55776;SDS011;54079;44.540;18.784;2023-05-07T05:48:25;2.45;;;2.25;;
55776;SDS011;54079;44.540;18.784;2023-05-07T05:50:51;2.05;;;1.95;;
55776;SDS011;54079;44.540;18.784;2023-05-07T05:53:17;1.90;;;1.80;;
55776;SDS011;54079;44.540;18.784;2023-05-07T05:55:43;2.72;;;1.73;;
55776;SDS011;54079;44.540;18.784;2023-05-07T05:58:09;2.58;;;2.38;;
55776;SDS011;54079;44.540;18.784;2023-05-07T06:00:35;2.80;;;2.28;;
55776;SDS011;54079;44.540;18.784;2023-05-07T06:03:01;2.13;;;2.00;;
55776;SDS011;54079;44.540;18.784;2023-05-07T06:05:27;1.92;;;1.83;;
55776;SDS011;54079;44.540;18.784;2023-05-07T06:07:53;1.92;;;1.83;;
55776;SDS011;54079;44.540;18.784;2023-05-07T06:10:19;2.35;;;2.15;;
55776;SDS011;54079;44.540;18.784;2023-05-07T06:12:49;1.90;;;1.80;;
55776;SDS011;54079;44.540;18.784;2023-05-07T06:15:15;2.25;;;2.00;;
55776;SDS011;54079;44.540;18.784;2023-05-07T06:17:41;7.93;;;7.30;;
55776;SDS011;54079;44.540;18.784;2023-05-07T06:20:07;3.55;;;3.28;;
55776;SDS011;54079;44.540;18.784;2023-05-07T06:22:33;6.38;;;4.10;;
55776;SDS011;54079;44.540;18.784;2023-05-07T06:25:00;2.97;;;2.78;;
55776;SDS011;54079;44.540;18.784;2023-05-07T06:27:26;2.78;;;2.50;;
55776;SDS011;54079;44.540;18.784;2023-05-07T06:29:53;5.05;;;4.18;;
55776;SDS011;54079;44.540;18.784;2023-05-07T06:32:18;3.10;;;2.90;;
55776;SDS011;54079;44.540;18.784;2023-05-07T06:34:44;2.92;;;2.70;;
55776;SDS011;54079;44.540;18.784;2023-05-07T06:37:10;3.50;;;3.20;;
55776;SDS011;54079;44.540;18.784;2023-05-07T06:39:36;3.28;;;3.08;;
55776;SDS011;54079;44.540;18.784;2023-05-07T06:42:02;3.08;;;2.83;;
55776;SDS011;54079;44.540;18.784;2023-05-07T06:44:29;3.47;;;3.10;;
55776;SDS011;54079;44.540;18.784;2023-05-07T06:46:56;3.20;;;3.00;;
55776;SDS011;54079;44.540;18.784;2023-05-07T06:49:22;3.22;;;2.95;;
55776;SDS011;54079;44.540;18.784;2023-05-07T06:51:48;2.80;;;2.60;;
55776;SDS011;54079;44.540;18.784;2023-05-07T06:54:14;3.25;;;3.05;;
55776;SDS011;54079;44.540;18.784;2023-05-07T06:56:40;2.85;;;2.65;;
55776;SDS011;54079;44.540;18.784;2023-05-07T06:59:06;2.67;;;2.50;;
55776;SDS011;54079;44.540;18.784;2023-05-07T07:01:32;3.00;;;2.80;;
55776;SDS011;54079;44.540;18.784;2023-05-07T07:03:58;3.58;;;3.15;;
55776;SDS011;54079;44.540;18.784;2023-05-07T07:06:24;3.00;;;2.80;;
55776;SDS011;54079;44.540;18.784;2023-05-07T07:08:50;3.17;;;2.97;;
55776;SDS011;54079;44.540;18.784;2023-05-07T07:11:16;3.10;;;2.90;;
55776;SDS011;54079;44.540;18.784;2023-05-07T07:13:42;3.15;;;2.83;;
55776;SDS011;54079;44.540;18.784;2023-05-07T07:16:08;2.80;;;2.60;;
55776;SDS011;54079;44.540;18.784;2023-05-07T07:18:34;5.63;;;5.22;;
55776;SDS011;54079;44.540;18.784;2023-05-07T07:21:00;5.43;;;4.10;;
55776;SDS011;54079;44.540;18.784;2023-05-07T07:23:26;3.60;;;3.30;;
55776;SDS011;54079;44.540;18.784;2023-05-07T07:25:52;3.40;;;3.10;;
55776;SDS011;54079;44.540;18.784;2023-05-07T07:28:20;3.13;;;2.92;;
55776;SDS011;54079;44.540;18.784;2023-05-07T07:30:46;3.38;;;3.10;;
55776;SDS011;54079;44.540;18.784;2023-05-07T07:33:12;3.33;;;3.10;;
55776;SDS011;54079;44.540;18.784;2023-05-07T07:35:38;3.08;;;2.88;;
55776;SDS011;54079;44.540;18.784;2023-05-07T07:38:04;3.53;;;3.30;;
55776;SDS011;54079;44.540;18.784;2023-05-07T07:40:30;3.72;;;3.42;;
55776;SDS011;54079;44.540;18.784;2023-05-07T07:42:56;3.35;;;3.05;;
55776;SDS011;54079;44.540;18.784;2023-05-07T07:45:22;3.03;;;2.83;;
55776;SDS011;54079;44.540;18.784;2023-05-07T07:47:48;3.72;;;3.42;;
55776;SDS011;54079;44.540;18.784;2023-05-07T07:50:14;4.10;;;3.08;;
55776;SDS011;54079;44.540;18.784;2023-05-07T07:52:39;5.68;;;3.80;;
55776;SDS011;54079;44.540;18.784;2023-05-07T07:55:06;4.03;;;3.70;;
55776;SDS011;54079;44.540;18.784;2023-05-07T07:57:32;6.72;;;6.15;;
55776;SDS011;54079;44.540;18.784;2023-05-07T07:59:58;4.60;;;4.20;;
55776;SDS011;54079;44.540;18.784;2023-05-07T08:02:24;4.00;;;3.58;;
55776;SDS011;54079;44.540;18.784;2023-05-07T08:04:50;6.05;;;4.10;;
55776;SDS011;54079;44.540;18.784;2023-05-07T08:07:16;4.28;;;3.90;;
55776;SDS011;54079;44.540;18.784;2023-05-07T08:09:45;4.83;;;3.93;;
55776;SDS011;54079;44.540;18.784;2023-05-07T08:12:12;4.25;;;3.95;;
55776;SDS011;54079;44.540;18.784;2023-05-07T08:14:38;3.30;;;3.10;;
55776;SDS011;54079;44.540;18.784;2023-05-07T08:17:04;5.03;;;2.85;;
55776;SDS011;54079;44.540;18.784;2023-05-07T08:19:30;3.55;;;3.25;;
55776;SDS011;54079;44.540;18.784;2023-05-07T08:21:56;4.20;;;3.80;;
55776;SDS011;54079;44.540;18.784;2023-05-07T08:24:22;3.78;;;3.40;;
55776;SDS011;54079;44.540;18.784;2023-05-07T08:26:47;4.75;;;3.50;;
55776;SDS011;54079;44.540;18.784;2023-05-07T08:29:14;3.28;;;2.97;;
55776;SDS011;54079;44.540;18.784;2023-05-07T08:31:40;3.45;;;3.03;;
55776;SDS011;54079;44.540;18.784;2023-05-07T08:34:06;3.22;;;2.92;;
55776;SDS011;54079;44.540;18.784;2023-05-07T08:36:33;3.25;;;3.05;;
55776;SDS011;54079;44.540;18.784;2023-05-07T08:38:59;3.72;;;3.00;;
55776;SDS011;54079;44.540;18.784;2023-05-07T08:41:25;2.55;;;2.38;;
55776;SDS011;54079;44.540;18.784;2023-05-07T08:43:51;2.80;;;2.60;;
55776;SDS011;54079;44.540;18.784;2023-05-07T08:46:18;4.55;;;2.78;;
55776;SDS011;54079;44.540;18.784;2023-05-07T08:48:48;2.90;;;2.70;;
55776;SDS011;54079;44.540;18.784;2023-05-07T08:51:18;3.03;;;2.83;;
55776;SDS011;54079;44.540;18.784;2023-05-07T08:53:46;3.42;;;2.28;;
55776;SDS011;54079;44.540;18.784;2023-05-07T08:56:15;2.80;;;2.60;;
55776;SDS011;54079;44.540;18.784;2023-05-07T08:58:42;2.65;;;2.47;;
55776;SDS011;54079;44.540;18.784;2023-05-07T09:01:09;3.00;;;2.80;;
55776;SDS011;54079;44.540;18.784;2023-05-07T09:03:38;2.30;;;2.20;;
55776;SDS011;54079;44.540;18.784;2023-05-07T09:06:05;2.83;;;2.63;;
55776;SDS011;54079;44.540;18.784;2023-05-07T09:08:32;2.60;;;2.33;;
55776;SDS011;54079;44.540;18.784;2023-05-07T09:10:59;2.28;;;2.10;;
55776;SDS011;54079;44.540;18.784;2023-05-07T09:13:25;2.00;;;1.90;;
55776;SDS011;54079;44.540;18.784;2023-05-07T09:15:52;2.13;;;2.03;;
55776;SDS011;54079;44.540;18.784;2023-05-07T09:18:19;2.53;;;2.33;;
55776;SDS011;54079;44.540;18.784;2023-05-07T09:20:44;2.38;;;2.17;;
55776;SDS011;54079;44.540;18.784;2023-05-07T09:23:10;3.40;;;3.05;;
55776;SDS011;54079;44.540;18.784;2023-05-07T09:25:37;2.10;;;2.00;;
55776;SDS011;54079;44.540;18.784;2023-05-07T09:28:03;2.03;;;1.92;;
55776;SDS011;54079;44.540;18.784;2023-05-07T09:30:32;2.33;;;2.13;;
55776;SDS011;54079;44.540;18.784;2023-05-07T09:33:00;2.90;;;2.70;;
55776;SDS011;54079;44.540;18.784;2023-05-07T09:35:28;3.17;;;2.25;;
55776;SDS011;54079;44.540;18.784;2023-05-07T09:37:55;2.35;;;2.15;;
55776;SDS011;54079;44.540;18.784;2023-05-07T09:40:23;2.20;;;2.10;;
55776;SDS011;54079;44.540;18.784;2023-05-07T09:42:50;3.00;;;2.80;;
55776;SDS011;54079;44.540;18.784;2023-05-07T09:45:20;2.20;;;2.10;;
55776;SDS011;54079;44.540;18.784;2023-05-07T09:47:54;2.70;;;2.50;;
55776;SDS011;54079;44.540;18.784;2023-05-07T09:50:22;2.42;;;2.20;;
55776;SDS011;54079;44.540;18.784;2023-05-07T09:52:53;2.22;;;2.13;;
55776;SDS011;54079;44.540;18.784;2023-05-07T09:55:20;2.42;;;2.15;;
55776;SDS011;54079;44.540;18.784;2023-05-07T09:57:49;2.15;;;1.95;;
55776;SDS011;54079;44.540;18.784;2023-05-07T10:00:20;2.20;;;2.10;;
55776;SDS011;54079;44.540;18.784;2023-05-07T10:02:47;3.08;;;2.85;;
55776;SDS011;54079;44.540;18.784;2023-05-07T10:05:16;2.72;;;2.50;;
55776;SDS011;54079;44.540;18.784;2023-05-07T10:07:43;3.03;;;2.72;;
55776;SDS011;54079;44.540;18.784;2023-05-07T10:10:10;2.90;;;2.35;;
55776;SDS011;54079;44.540;18.784;2023-05-07T10:12:36;2.47;;;2.28;;
55776;SDS011;54079;44.540;18.784;2023-05-07T10:15:10;2.30;;;2.20;;
55776;SDS011;54079;44.540;18.784;2023-05-07T10:17:37;2.40;;;2.30;;
55776;SDS011;54079;44.540;18.784;2023-05-07T10:20:05;2.63;;;2.42;;
55776;SDS011;54079;44.540;18.784;2023-05-07T10:22:32;4.47;;;2.63;;
55776;SDS011;54079;44.540;18.784;2023-05-07T10:25:31;2.60;;;2.40;;
55776;SDS011;54079;44.540;18.784;2023-05-07T10:28:01;1.98;;;1.88;;
55776;SDS011;54079;44.540;18.784;2023-05-07T10:30:54;2.38;;;1.77;;
55776;SDS011;54079;44.540;18.784;2023-05-07T10:33:27;2.50;;;2.30;;
55776;SDS011;54079;44.540;18.784;2023-05-07T10:35:56;2.22;;;2.05;;
55776;SDS011;54079;44.540;18.784;2023-05-07T10:38:25;3.92;;;2.78;;
55776;SDS011;54079;44.540;18.784;2023-05-07T10:40:52;2.30;;;2.10;;
55776;SDS011;54079;44.540;18.784;2023-05-07T10:43:19;3.20;;;2.70;;
55776;SDS011;54079;44.540;18.784;2023-05-07T10:51:31;2.40;;;2.20;;
55776;SDS011;54079;44.540;18.784;2023-05-07T10:56:36;2.60;;;2.38;;
55776;SDS011;54079;44.540;18.784;2023-05-07T11:01:57;2.95;;;2.50;;
55776;SDS011;54079;44.540;18.784;2023-05-07T11:04:24;1.85;;;1.75;;
55776;SDS011;54079;44.540;18.784;2023-05-07T11:12:45;4.75;;;2.63;;
55776;SDS011;54079;44.540;18.784;2023-05-07T11:15:10;2.33;;;2.20;;
55776;SDS011;54079;44.540;18.784;2023-05-07T11:17:55;1.92;;;1.75;;
55776;SDS011;54079;44.540;18.784;2023-05-07T11:26:07;3.13;;;2.28;;
55776;SDS011;54079;44.540;18.784;2023-05-07T11:28:36;2.10;;;1.88;;
55776;SDS011;54079;44.540;18.784;2023-05-07T11:31:03;2.90;;;2.00;;
55776;SDS011;54079;44.540;18.784;2023-05-07T11:33:30;2.20;;;2.00;;
55776;SDS011;54079;44.540;18.784;2023-05-07T11:35:56;2.15;;;2.00;;
55776;SDS011;54079;44.540;18.784;2023-05-07T11:38:23;2.70;;;2.38;;
55776;SDS011;54079;44.540;18.784;2023-05-07T11:40:54;1.77;;;1.67;;
55776;SDS011;54079;44.540;18.784;2023-05-07T11:43:21;3.40;;;2.30;;
55776;SDS011;54079;44.540;18.784;2023-05-07T11:45:48;2.30;;;1.85;;
55776;SDS011;54079;44.540;18.784;2023-05-07T11:48:14;2.10;;;2.00;;
55776;SDS011;54079;44.540;18.784;2023-05-07T11:50:54;2.45;;;2.25;;
55776;SDS011;54079;44.540;18.784;2023-05-07T11:53:27;2.30;;;2.10;;
55776;SDS011;54079;44.540;18.784;2023-05-07T11:56:00;2.78;;;2.53;;
55776;SDS011;54079;44.540;18.784;2023-05-07T11:58:31;2.38;;;2.15;;
55776;SDS011;54079;44.540;18.784;2023-05-07T12:00:57;2.00;;;1.80;;
55776;SDS011;54079;44.540;18.784;2023-05-07T12:03:23;2.22;;;2.03;;
55776;SDS011;54079;44.540;18.784;2023-05-07T12:05:49;2.45;;;1.95;;
55776;SDS011;54079;44.540;18.784;2023-05-07T12:08:18;2.20;;;2.00;;
55776;SDS011;54079;44.540;18.784;2023-05-07T12:10:46;3.38;;;2.10;;
55776;SDS011;54079;44.540;18.784;2023-05-07T12:13:17;3.17;;;2.05;;
55776;SDS011;54079;44.540;18.784;2023-05-07T12:15:43;4.53;;;2.20;;
55776;SDS011;54079;44.540;18.784;2023-05-07T12:18:10;2.30;;;2.08;;
55776;SDS011;54079;44.540;18.784;2023-05-07T12:20:37;2.30;;;2.10;;
55776;SDS011;54079;44.540;18.784;2023-05-07T12:23:03;2.78;;;1.90;;
55776;SDS011;54079;44.540;18.784;2023-05-07T12:25:30;2.33;;;2.13;;
55776;SDS011;54079;44.540;18.784;2023-05-07T12:28:00;1.92;;;1.83;;
55776;SDS011;54079;44.540;18.784;2023-05-07T12:30:27;1.65;;;1.55;;
55776;SDS011;54079;44.540;18.784;2023-05-07T12:32:53;2.10;;;1.90;;
55776;SDS011;54079;44.540;18.784;2023-05-07T12:35:26;1.90;;;1.80;;
55776;SDS011;54079;44.540;18.784;2023-05-07T12:37:59;2.65;;;2.45;;
55776;SDS011;54079;44.540;18.784;2023-05-07T12:40:36;2.22;;;2.13;;
55776;SDS011;54079;44.540;18.784;2023-05-07T12:43:03;1.88;;;1.77;;
55776;SDS011;54079;44.540;18.784;2023-05-07T12:45:28;2.03;;;1.88;;
55776;SDS011;54079;44.540;18.784;2023-05-07T12:47:55;2.83;;;2.25;;
55776;SDS011;54079;44.540;18.784;2023-05-07T12:50:21;2.20;;;2.00;;
55776;SDS011;54079;44.540;18.784;2023-05-07T12:52:48;2.05;;;1.95;;
55776;SDS011;54079;44.540;18.784;2023-05-07T12:55:14;2.50;;;2.30;;
55776;SDS011;54079;44.540;18.784;2023-05-07T12:57:42;2.28;;;2.10;;
55776;SDS011;54079;44.540;18.784;2023-05-07T13:00:09;1.88;;;1.77;;
55776;SDS011;54079;44.540;18.784;2023-05-07T13:02:39;1.92;;;1.83;;
55776;SDS011;54079;44.540;18.784;2023-05-07T13:07:33;2.28;;;2.08;;
55776;SDS011;54079;44.540;18.784;2023-05-07T13:09:59;4.20;;;2.55;;
55776;SDS011;54079;44.540;18.784;2023-05-07T13:12:25;2.00;;;1.90;;
55776;SDS011;54079;44.540;18.784;2023-05-07T13:14:51;2.47;;;2.22;;
55776;SDS011;54079;44.540;18.784;2023-05-07T13:17:17;3.28;;;2.40;;
55776;SDS011;54079;44.540;18.784;2023-05-07T13:19:43;1.88;;;1.77;;
55776;SDS011;54079;44.540;18.784;2023-05-07T13:22:09;2.20;;;2.10;;
55776;SDS011;54079;44.540;18.784;2023-05-07T13:24:36;2.30;;;2.10;;
55776;SDS011;54079;44.540;18.784;2023-05-07T13:27:01;2.22;;;2.10;;
55776;SDS011;54079;44.540;18.784;2023-05-07T13:29:28;2.88;;;2.33;;
55776;SDS011;54079;44.540;18.784;2023-05-07T13:31:58;3.60;;;2.63;;
55776;SDS011;54079;44.540;18.784;2023-05-07T13:34:25;2.03;;;1.92;;
55776;SDS011;54079;44.540;18.784;2023-05-07T13:36:51;1.90;;;1.77;;
55776;SDS011;54079;44.540;18.784;2023-05-07T13:39:17;2.75;;;2.50;;
55776;SDS011;54079;44.540;18.784;2023-05-07T13:41:43;2.67;;;2.47;;
55776;SDS011;54079;44.540;18.784;2023-05-07T13:44:09;3.05;;;2.40;;
55776;SDS011;54079;44.540;18.784;2023-05-07T13:46:35;3.30;;;2.08;;
55776;SDS011;54079;44.540;18.784;2023-05-07T13:49:01;3.03;;;2.70;;
55776;SDS011;54079;44.540;18.784;2023-05-07T13:51:26;3.70;;;2.30;;
55776;SDS011;54079;44.540;18.784;2023-05-07T13:53:52;2.58;;;2.38;;
55776;SDS011;54079;44.540;18.784;2023-05-07T13:56:19;3.38;;;2.13;;
55776;SDS011;54079;44.540;18.784;2023-05-07T13:58:46;2.25;;;2.08;;
55776;SDS011;54079;44.540;18.784;2023-05-07T14:01:12;2.38;;;2.17;;
55776;SDS011;54079;44.540;18.784;2023-05-07T14:03:37;2.58;;;2.38;;
55776;SDS011;54079;44.540;18.784;2023-05-07T14:06:05;2.28;;;2.15;;
55776;SDS011;54079;44.540;18.784;2023-05-07T14:08:31;1.90;;;1.80;;
55776;SDS011;54079;44.540;18.784;2023-05-07T14:10:57;2.92;;;2.33;;
55776;SDS011;54079;44.540;18.784;2023-05-07T14:13:22;2.17;;;2.08;;
55776;SDS011;54079;44.540;18.784;2023-05-07T14:15:48;2.60;;;2.40;;
55776;SDS011;54079;44.540;18.784;2023-05-07T14:18:15;2.63;;;2.45;;
55776;SDS011;54079;44.540;18.784;2023-05-07T14:20:41;2.30;;;2.20;;
55776;SDS011;54079;44.540;18.784;2023-05-07T14:23:11;2.40;;;2.20;;
55776;SDS011;54079;44.540;18.784;2023-05-07T14:25:37;2.03;;;1.80;;
55776;SDS011;54079;44.540;18.784;2023-05-07T14:28:03;2.92;;;2.00;;
55776;SDS011;54079;44.540;18.784;2023-05-07T14:30:29;2.95;;;2.22;;
55776;SDS011;54079;44.540;18.784;2023-05-07T14:32:55;2.00;;;1.90;;
55776;SDS011;54079;44.540;18.784;2023-05-07T14:35:21;3.58;;;2.50;;
55776;SDS011;54079;44.540;18.784;2023-05-07T14:37:47;2.97;;;2.78;;
55776;SDS011;54079;44.540;18.784;2023-05-07T14:40:13;2.33;;;2.15;;
55776;SDS011;54079;44.540;18.784;2023-05-07T14:42:39;2.55;;;2.40;;
55776;SDS011;54079;44.540;18.784;2023-05-07T14:45:06;3.17;;;2.00;;
55776;SDS011;54079;44.540;18.784;2023-05-07T14:47:32;3.97;;;2.45;;
55776;SDS011;54079;44.540;18.784;2023-05-07T14:49:58;2.10;;;2.00;;
55776;SDS011;54079;44.540;18.784;2023-05-07T14:52:25;1.70;;;1.60;;
55776;SDS011;54079;44.540;18.784;2023-05-07T14:54:52;2.05;;;1.90;;